This is the latest recevied weather packets stored in our database for station/object E24CR-1. If no packets are shown the sender has not sent any weather packets the latest 1 day(s).
| Time | Temp. | Humidity | Pressure | Rain* | Wind** | Luminosity | Snow |
|---|---|---|---|---|---|---|---|
| 1778012601 | 25° C | 81% | 951 hPa | - | 0 m/s | 0 W/m² | - |
| 1778011977 | 25.56° C | 80% | 951 hPa | - | 0 m/s | 0 W/m² | - |
| 1778011353 | 25° C | 82% | 951 hPa | - | 0 m/s | 0 W/m² | - |
| 1778010729 | 25° C | 82% | 951 hPa | - | 0 m/s | 0 W/m² | - |
| 1778010104 | 25° C | 82% | 951 hPa | - | 0 m/s | 0 W/m² | - |
| 1778009480 | 25° C | 83% | 951 hPa | - | 0 m/s | 0 W/m² | - |
| 1778008856 | 24.44° C | 85% | 951 hPa | - | 0 m/s | 0 W/m² | - |
| 1778008232 | 24.44° C | 87% | 951 hPa | - | 0 m/s | 0 W/m² | - |
| 1778007608 | 23.89° C | 89% | 951 hPa | - | 0 m/s | 0 W/m² | - |
| 1778006984 | 23.89° C | 93% | 951 hPa | - | 0 m/s | 0 W/m² | - |
| 1778006359 | 23.89° C | 92% | 951 hPa | - | 0 m/s | 0 W/m² | - |
| 1778005736 | 23.89° C | 91% | 951 hPa | - | 0 m/s | 0 W/m² | - |
| 1778005112 | 23.89° C | 85% | 952 hPa | - | 0 m/s | 0 W/m² | - |
| 1778004487 | 23.89° C | 85% | 952 hPa | - | 0 m/s | 0 W/m² | - |
| 1778003863 | 23.89° C | 85% | 952 hPa | - | 0 m/s | 0 W/m² | - |
| 1778003239 | 23.89° C | 93% | 952 hPa | - | 0 m/s | 0 W/m² | - |
| 1778002615 | 23.89° C | 92% | 952 hPa | - | 0 m/s | 0 W/m² | - |
| 1778001990 | 24.44° C | 95% | 952 hPa | - | 0 m/s | 0 W/m² | - |
| 1778001366 | 24.44° C | 99% | 953 hPa | - | 0 m/s | 0 W/m² | - |
| 1778000742 | 25° C | 95% | 953 hPa | - | 0 m/s | 0 W/m² | - |
| 1778000118 | 25° C | 95% | 953 hPa | - | 0 m/s | 0 W/m² | - |
| 1777999494 | 26.67° C | 79% | 953 hPa | - | 0 m/s | 0 W/m² | - |
| 1777998870 | 28.89° C | 64% | 953 hPa | - | 0 m/s | 0 W/m² | - |
| 1777998245 | 28.33° C | 64% | 953 hPa | - | 0 m/s | 0 W/m² | - |
| 1777997621 | 27.78° C | 66% | 953 hPa | - | 0 m/s | 0 W/m² | - |
* Rain since midnight (hover to see other rain measurements)
** Current wind speed in m/s (hover to see current wind gust speed)